createdAt,value
2023-05-10T00:03:05.952Z,12.36
2023-05-10T00:08:07.569Z,12.39
2023-05-10T00:13:09.221Z,12.40
2023-05-10T00:18:10.887Z,12.41
2023-05-10T00:23:13.045Z,12.40
2023-05-10T00:28:14.594Z,12.35
2023-05-10T00:33:16.174Z,12.42
2023-05-10T00:38:17.952Z,12.44
2023-05-10T00:43:19.473Z,12.49
2023-05-10T00:48:23.432Z,12.50
2023-05-10T00:53:25.654Z,12.48
2023-05-10T00:58:29.296Z,12.46
2023-05-10T01:03:31.721Z,12.48
2023-05-10T01:08:33.418Z,12.38
2023-05-10T01:13:38.930Z,12.42
2023-05-10T01:18:43.506Z,12.37
2023-05-10T01:24:09.258Z,12.37
2023-05-10T01:29:30.383Z,12.40
2023-05-10T01:34:57.787Z,12.36
2023-05-10T01:40:14.354Z,12.21
2023-05-10T01:45:20.556Z,12.27
2023-05-10T01:50:29.726Z,12.28
2023-05-10T01:55:35.424Z,12.30
2023-05-10T02:00:40.891Z,12.29
2023-05-10T02:05:46.025Z,12.32
2023-05-10T02:10:50.107Z,12.32
2023-05-10T02:15:52.792Z,12.33
2023-05-10T02:20:56.272Z,12.37
2023-05-10T02:25:59.041Z,12.39
2023-05-10T02:31:01.182Z,12.42
2023-05-10T02:36:04.818Z,12.44
2023-05-10T02:41:08.963Z,12.41
2023-05-10T02:46:12.975Z,12.39
2023-05-10T02:51:18.622Z,12.28
2023-05-10T02:56:32.746Z,12.17
2023-05-10T03:01:34.394Z,12.26
2023-05-10T03:06:36.066Z,12.27
2023-05-10T03:11:45.796Z,12.15
2023-05-10T03:16:58.641Z,11.89
2023-05-10T03:22:07.765Z,11.68
2023-05-10T03:27:11.643Z,11.75
2023-05-10T03:32:13.414Z,11.87
2023-05-10T03:37:15.111Z,11.89
2023-05-10T03:42:18.846Z,11.80
2023-05-10T03:47:20.832Z,11.83
2023-05-10T03:52:22.503Z,11.85
2023-05-10T03:57:24.296Z,11.87
2023-05-10T04:02:26.350Z,11.90
2023-05-10T04:07:28.365Z,11.92
2023-05-10T04:12:31.020Z,12.01
2023-05-10T04:17:32.575Z,12.06
2023-05-10T04:22:34.115Z,12.14
2023-05-10T04:27:35.652Z,12.23
2023-05-10T04:32:37.285Z,12.27
2023-05-10T04:37:39.003Z,12.34
2023-05-10T04:42:44.713Z,12.40
2023-05-10T04:47:46.348Z,12.48
2023-05-10T04:52:47.878Z,12.57
2023-05-10T04:57:49.435Z,12.63
2023-05-10T05:02:51.025Z,12.73
2023-05-10T05:07:52.872Z,12.83
2023-05-10T05:12:54.475Z,12.93
2023-05-10T05:17:56.147Z,13.01
2023-05-10T05:22:57.827Z,13.13
2023-05-10T05:27:59.414Z,13.27
2023-05-10T05:33:01.187Z,13.41
2023-05-10T05:38:02.794Z,13.52
2023-05-10T05:43:06.752Z,13.64
2023-05-10T05:48:08.372Z,13.86
2023-05-10T05:53:10.008Z,14.11
2023-05-10T05:58:11.563Z,14.26
2023-05-10T06:03:13.381Z,14.35
2023-05-10T06:08:15.040Z,14.47
2023-05-10T06:13:19.062Z,14.55
2023-05-10T06:18:20.651Z,14.79
2023-05-10T06:23:23.215Z,14.88
2023-05-10T06:28:28.648Z,14.95
2023-05-10T06:33:30.382Z,15.01
2023-05-10T06:38:31.967Z,15.13
2023-05-10T06:43:33.700Z,15.31
2023-05-10T06:48:35.323Z,15.47
2023-05-10T06:53:36.954Z,15.65
2023-05-10T06:58:39.080Z,15.99
2023-05-10T07:03:40.725Z,16.28
2023-05-10T07:08:42.252Z,16.61
2023-05-10T07:13:45.278Z,16.87
2023-05-10T07:18:46.899Z,17.09
2023-05-10T07:23:48.687Z,17.14
2023-05-10T07:28:50.458Z,17.25
2023-05-10T07:33:52.118Z,17.14
2023-05-10T07:38:53.697Z,17.01
2023-05-10T07:43:55.244Z,16.97
2023-05-10T07:48:56.815Z,17.33
2023-05-10T07:53:59.097Z,17.53
2023-05-10T07:59:01.203Z,17.64
2023-05-10T08:04:03.520Z,17.74
2023-05-10T08:09:05.362Z,17.99
2023-05-10T08:14:06.989Z,17.94
2023-05-10T08:19:08.947Z,17.98
2023-05-10T08:24:10.717Z,18.47
2023-05-10T08:29:12.455Z,18.96
2023-05-10T08:34:14.079Z,19.23
2023-05-10T08:39:26.733Z,19.56
2023-05-10T08:44:35.128Z,19.43
2023-05-10T08:49:38.601Z,19.40
2023-05-10T08:54:40.453Z,19.51
2023-05-10T08:59:42.240Z,19.76
2023-05-10T09:04:44.150Z,19.73
2023-05-10T09:09:46.906Z,19.38
2023-05-10T09:14:53.504Z,19.20
2023-05-10T09:20:02.508Z,18.43
2023-05-10T09:25:16.094Z,17.58
2023-05-10T09:30:29.761Z,16.91
2023-05-10T09:35:33.042Z,16.31
2023-05-10T09:40:34.815Z,16.22
2023-05-10T09:45:38.886Z,16.81
2023-05-10T09:50:41.373Z,18.01
2023-05-10T09:55:47.061Z,19.69
2023-05-10T10:00:52.258Z,20.50
2023-05-10T10:05:54.327Z,20.35
2023-05-10T10:10:55.972Z,20.37
2023-05-10T10:15:57.764Z,20.30
2023-05-10T10:21:00.150Z,20.22
2023-05-10T10:26:04.072Z,20.37
2023-05-10T10:31:20.943Z,20.79
2023-05-10T10:36:22.746Z,21.19
2023-05-10T10:41:45.057Z,21.04
2023-05-10T10:47:25.975Z,19.97
2023-05-10T10:52:30.750Z,19.15
2023-05-10T10:57:54.497Z,19.14
2023-05-10T11:03:09.281Z,19.57
2023-05-10T11:08:30.690Z,20.24
2023-05-10T11:13:55.544Z,20.50
2023-05-10T11:19:03.978Z,20.25
2023-05-10T11:24:14.476Z,20.05
2023-05-10T11:29:17.017Z,20.18
2023-05-10T11:34:36.330Z,20.49
2023-05-10T11:39:38.053Z,20.09
2023-05-10T11:44:39.818Z,19.93
2023-05-10T11:49:45.400Z,19.79
2023-05-10T11:54:53.081Z,20.05
2023-05-10T11:59:56.002Z,20.37
2023-05-10T12:04:58.077Z,20.57
2023-05-10T12:10:17.591Z,20.53
2023-05-10T12:15:24.499Z,20.93
2023-05-10T12:20:28.767Z,21.27
2023-05-10T12:25:35.592Z,21.45
2023-05-10T12:30:38.169Z,21.84
2023-05-10T12:35:57.337Z,22.23
2023-05-10T12:41:00.984Z,22.50
2023-05-10T12:46:15.164Z,22.07
2023-05-10T12:51:20.315Z,20.89
2023-05-10T12:56:22.100Z,20.53
2023-05-10T13:01:23.758Z,20.43
2023-05-10T13:06:25.449Z,20.50
2023-05-10T13:11:27.240Z,20.52
2023-05-10T13:16:28.825Z,21.08
2023-05-10T13:21:30.488Z,21.19
2023-05-10T13:26:31.980Z,21.02
2023-05-10T13:31:34.150Z,20.77
2023-05-10T13:36:35.998Z,21.20
2023-05-10T13:41:38.425Z,21.33
2023-05-10T13:46:40.514Z,21.35
2023-05-10T13:51:42.253Z,21.63
2023-05-10T13:56:44.910Z,21.00
2023-05-10T14:01:46.535Z,20.05
2023-05-10T14:06:48.106Z,19.37
2023-05-10T14:11:49.683Z,18.86
2023-05-10T14:16:51.708Z,18.45
2023-05-10T14:21:53.383Z,18.27
2023-05-10T14:26:55.292Z,19.18
2023-05-10T14:31:56.985Z,20.75
2023-05-10T14:36:59.428Z,21.07
2023-05-10T14:42:01.124Z,21.28
2023-05-10T14:47:03.425Z,21.28
2023-05-10T14:52:05.178Z,21.66
2023-05-10T14:57:07.765Z,21.51
2023-05-10T15:02:09.425Z,21.47
2023-05-10T15:07:15.656Z,21.45
2023-05-10T15:12:17.368Z,20.88
2023-05-10T15:17:18.914Z,20.18
2023-05-10T15:22:20.883Z,19.68
2023-05-10T15:27:22.477Z,18.86
2023-05-10T15:32:24.132Z,18.22
2023-05-10T15:37:25.781Z,18.03
2023-05-10T15:42:27.344Z,17.41
2023-05-10T15:47:31.176Z,16.88
2023-05-10T15:52:32.881Z,16.63
2023-05-10T15:57:36.273Z,17.36
2023-05-10T16:02:39.318Z,18.19
2023-05-10T16:07:42.052Z,18.45
2023-05-10T16:12:44.131Z,18.54
2023-05-10T16:17:45.852Z,18.67
2023-05-10T16:22:47.687Z,18.48
2023-05-10T16:27:49.397Z,18.48
2023-05-10T16:32:51.059Z,18.52
2023-05-10T16:37:53.238Z,18.47
2023-05-10T16:42:54.822Z,18.37
2023-05-10T16:47:56.678Z,18.28
2023-05-10T16:52:58.463Z,18.04
2023-05-10T16:58:00.902Z,17.92
2023-05-10T17:03:02.697Z,17.87
2023-05-10T17:08:04.564Z,17.81
2023-05-10T17:13:08.668Z,17.58
2023-05-10T17:18:12.508Z,17.33
2023-05-10T17:23:14.193Z,17.09
2023-05-10T17:28:15.823Z,16.89
2023-05-10T17:33:17.478Z,16.62
2023-05-10T17:38:19.049Z,16.29
2023-05-10T17:43:20.837Z,16.14
2023-05-10T17:48:23.071Z,16.01
2023-05-10T17:53:24.870Z,15.81
2023-05-10T17:58:26.598Z,15.57
2023-05-10T18:03:28.158Z,15.40
2023-05-10T18:08:31.259Z,15.07
2023-05-10T18:13:35.073Z,15.01
2023-05-10T18:18:36.878Z,14.84
2023-05-10T18:23:38.443Z,14.66
2023-05-10T18:28:40.244Z,14.47
2023-05-10T18:33:42.099Z,14.23
2023-05-10T18:38:43.780Z,14.00
2023-05-10T18:43:45.293Z,13.83
2023-05-10T18:48:47.137Z,13.69
2023-05-10T18:53:49.436Z,13.51
2023-05-10T18:58:51.345Z,13.29
2023-05-10T19:03:52.935Z,13.06
2023-05-10T19:08:54.516Z,12.85
2023-05-10T19:13:56.079Z,12.74
2023-05-10T19:18:57.749Z,12.58
2023-05-10T19:24:01.288Z,12.41
2023-05-10T19:29:04.989Z,12.23
2023-05-10T19:34:07.155Z,12.06
2023-05-10T19:39:09.130Z,11.92
2023-05-10T19:44:10.753Z,11.80
2023-05-10T19:49:12.534Z,11.69
2023-05-10T19:54:14.089Z,11.60
2023-05-10T19:59:16.086Z,11.49
2023-05-10T20:04:17.729Z,11.39
2023-05-10T20:09:19.311Z,11.32
2023-05-10T20:14:21.039Z,11.25
2023-05-10T20:19:22.681Z,11.22
2023-05-10T20:24:24.794Z,11.14
2023-05-10T20:29:26.526Z,10.98
2023-05-10T20:34:28.106Z,10.89
2023-05-10T20:39:30.057Z,10.88
2023-05-10T20:44:31.669Z,10.87
2023-05-10T20:49:33.991Z,10.83
2023-05-10T20:54:35.816Z,10.76
2023-05-10T20:59:37.370Z,10.71
2023-05-10T21:04:39.040Z,10.67
2023-05-10T21:09:40.828Z,10.60
2023-05-10T21:14:43.804Z,10.76
2023-05-10T21:19:45.393Z,10.77
2023-05-10T21:24:47.211Z,10.52
2023-05-10T21:29:48.819Z,10.55
2023-05-10T21:34:50.397Z,10.47
2023-05-10T21:39:52.876Z,10.42
2023-05-10T21:44:54.720Z,10.36
2023-05-10T21:49:56.302Z,10.22
2023-05-10T21:54:57.836Z,10.35
2023-05-10T21:59:59.458Z,10.22
2023-05-10T22:05:02.248Z,10.31
2023-05-10T22:10:04.083Z,10.26
2023-05-10T22:20:10.875Z,10.03
2023-05-10T22:25:12.570Z,9.92
2023-05-10T22:30:14.329Z,10.02
2023-05-10T22:35:15.956Z,10.04
2023-05-10T22:40:17.731Z,10.01
2023-05-10T22:45:19.588Z,10.00
2023-05-10T22:50:21.699Z,9.99
2023-05-10T22:55:23.777Z,9.96
2023-05-10T23:00:25.621Z,9.91
2023-05-10T23:05:27.214Z,9.84
2023-05-10T23:10:29.251Z,9.82
2023-05-10T23:15:33.108Z,9.68
2023-05-10T23:20:34.691Z,9.65
2023-05-10T23:25:36.985Z,9.65
2023-05-10T23:30:38.593Z,9.59
2023-05-10T23:35:40.153Z,9.53
2023-05-10T23:40:41.801Z,9.51
2023-05-10T23:45:43.607Z,9.49
2023-05-10T23:50:45.338Z,9.52
2023-05-10T23:55:47.027Z,9.53
